Terminal Aerodrome Forecast
Issued by NWS

Home | Current Version | Previous Version | Text Only | Print | Product List | Glossary On
Versions: 1 2 3 4 5 6 7 8 9 10 11 12 13 14 15 16 17 18 19 20 21 22
000
FTAK31 PANC 282325
TAFAAQ
TAF
PAAQ 282325Z 2900/2924 04018G28KT P6SM FEW050
     FM290300 VRB06KT P6SM SKC
     FM290700 04012G20KT P6SM SKC
     FM292100 VRB06KT P6SM FEW100=

USA.gov is the U.S. government's official web portal to all federal, state and local government web resources and services.